createdAt,value
2023-04-02T00:02:20.790Z,18.48
2023-04-02T00:05:16.800Z,17.95
2023-04-02T00:07:44.825Z,21.65
2023-04-02T00:10:35.797Z,18.65
2023-04-02T00:13:18.420Z,19.15
2023-04-02T00:15:47.686Z,19.25
2023-04-02T00:18:17.675Z,18.45
2023-04-02T00:20:49.131Z,19.30
2023-04-02T00:23:16.170Z,19.75
2023-04-02T00:25:45.564Z,19.05
2023-04-02T00:28:18.690Z,19.50
2023-04-02T00:30:48.385Z,20.52
2023-04-02T00:33:20.420Z,18.98
2023-04-02T00:35:48.769Z,19.15
2023-04-02T00:38:26.981Z,17.08
2023-04-02T00:40:56.681Z,18.25
2023-04-02T00:43:25.760Z,18.17
2023-04-02T00:45:56.326Z,18.00
2023-04-02T00:48:32.537Z,19.58
2023-04-02T00:51:30.509Z,20.27
2023-04-02T00:54:02.371Z,19.65
2023-04-02T00:56:32.617Z,21.70
2023-04-02T00:58:59.528Z,19.15
2023-04-02T01:01:30.282Z,21.60
2023-04-02T01:04:01.563Z,20.13
2023-04-02T01:06:37.848Z,19.23
2023-04-02T01:09:25.348Z,20.45
2023-04-02T01:11:58.242Z,18.83
2023-04-02T01:14:43.828Z,18.40
2023-04-02T01:17:20.092Z,19.73
2023-04-02T01:20:07.709Z,21.90
2023-04-02T01:23:02.840Z,21.35
2023-04-02T01:25:38.351Z,19.17
2023-04-02T01:28:21.149Z,19.92
2023-04-02T01:30:52.289Z,22.98
2023-04-02T01:33:22.001Z,22.42
2023-04-02T01:35:55.988Z,20.23
2023-04-02T01:38:34.852Z,20.98
2023-04-02T01:41:27.266Z,23.33
2023-04-02T01:44:03.758Z,20.08
2023-04-02T01:46:35.373Z,21.80
2023-04-02T01:49:04.841Z,20.55
2023-04-02T01:51:35.436Z,22.50
2023-04-02T01:54:04.499Z,21.98
2023-04-02T01:56:31.459Z,21.05
2023-04-02T01:58:58.603Z,21.13
2023-04-02T02:01:31.140Z,22.48
2023-04-02T02:03:58.037Z,22.00
2023-04-02T02:06:24.832Z,21.73
2023-04-02T02:08:51.492Z,22.58
2023-04-02T02:11:21.915Z,23.67
2023-04-02T02:13:58.126Z,24.20
2023-04-02T02:16:29.263Z,23.77
2023-04-02T02:19:03.658Z,22.30
2023-04-02T02:21:44.968Z,21.67
2023-04-02T02:24:27.029Z,21.08
2023-04-02T02:27:12.548Z,22.73
2023-04-02T02:29:41.137Z,23.02
2023-04-02T02:32:09.911Z,23.02
2023-04-02T02:34:39.993Z,23.00
2023-04-02T02:37:12.921Z,23.73
2023-04-02T02:39:44.707Z,22.23
2023-04-02T02:42:17.290Z,23.77
2023-04-02T02:44:45.100Z,23.23
2023-04-02T02:47:29.096Z,23.45
2023-04-02T02:50:03.090Z,22.40
2023-04-02T02:52:36.222Z,24.90
2023-04-02T02:55:04.993Z,23.40
2023-04-02T02:57:42.842Z,24.77
2023-04-02T03:00:11.846Z,24.00
2023-04-02T03:02:39.988Z,22.45
2023-04-02T03:05:07.651Z,24.35
2023-04-02T03:07:34.497Z,24.65
2023-04-02T03:10:13.225Z,23.13
2023-04-02T03:12:48.864Z,23.73
2023-04-02T03:15:15.762Z,24.33
2023-04-02T03:17:51.668Z,23.88
2023-04-02T03:20:35.879Z,24.50
2023-04-02T03:23:31.160Z,21.80
2023-04-02T03:26:09.480Z,22.73
2023-04-02T03:28:42.988Z,22.38
2023-04-02T03:31:13.741Z,24.30
2023-04-02T03:33:44.561Z,21.83
2023-04-02T03:36:20.712Z,23.38
2023-04-02T03:39:05.741Z,22.25
2023-04-02T03:41:40.230Z,20.75
2023-04-02T03:44:17.356Z,22.63
2023-04-02T03:46:57.410Z,22.58
2023-04-02T03:49:32.093Z,23.55
2023-04-02T03:52:20.595Z,24.27
2023-04-02T03:54:54.233Z,24.23
2023-04-02T03:57:46.180Z,24.52
2023-04-02T04:00:36.933Z,23.73
2023-04-02T04:03:10.945Z,26.80
2023-04-02T04:05:44.343Z,22.45
2023-04-02T04:08:18.057Z,23.10
2023-04-02T04:10:44.823Z,25.60
2023-04-02T04:13:18.904Z,23.92
2023-04-02T04:15:45.790Z,24.88
2023-04-02T04:18:34.858Z,23.88
2023-04-02T04:21:05.057Z,25.65
2023-04-02T04:23:39.297Z,27.65
2023-04-02T04:26:12.133Z,25.65
2023-04-02T04:28:59.892Z,24.88
2023-04-02T04:31:39.617Z,26.15
2023-04-02T04:34:13.071Z,27.20
2023-04-02T04:36:54.451Z,27.83
2023-04-02T04:39:42.976Z,26.33
2023-04-02T04:42:17.586Z,26.70
2023-04-02T04:45:00.208Z,26.40
2023-04-02T04:47:34.220Z,29.55
2023-04-02T04:50:26.408Z,27.15
2023-04-02T04:52:53.302Z,27.08
2023-04-02T04:55:29.070Z,26.83
2023-04-02T04:58:01.087Z,27.27
2023-04-02T05:00:41.974Z,28.50
2023-04-02T05:03:22.613Z,25.17
2023-04-02T05:05:49.538Z,24.77
2023-04-02T05:08:27.587Z,25.08
2023-04-02T05:11:01.346Z,28.13
2023-04-02T05:13:44.766Z,26.48
2023-04-02T05:16:17.229Z,24.15
2023-04-02T05:18:52.256Z,27.55
2023-04-02T05:21:33.572Z,26.80
2023-04-02T05:24:32.632Z,26.52
2023-04-02T05:27:02.990Z,28.98
2023-04-02T05:29:37.026Z,26.35
2023-04-02T05:32:05.109Z,30.48
2023-04-02T05:34:38.702Z,29.63
2023-04-02T05:37:07.226Z,26.70
2023-04-02T05:39:34.067Z,27.55
2023-04-02T05:42:06.083Z,28.55
2023-04-02T05:44:36.307Z,26.77
2023-04-02T05:47:08.279Z,27.92
2023-04-02T05:49:53.882Z,27.05
2023-04-02T05:52:24.158Z,26.95
2023-04-02T05:55:11.600Z,24.88
2023-04-02T05:57:48.344Z,24.90
2023-04-02T06:00:42.640Z,27.08
2023-04-02T06:03:46.754Z,25.85
2023-04-02T06:06:27.902Z,27.77
2023-04-02T06:08:59.380Z,26.45
2023-04-02T06:11:32.467Z,25.25
2023-04-02T06:13:59.688Z,23.40
2023-04-02T06:16:28.021Z,27.25
2023-04-02T06:18:55.288Z,23.95
2023-04-02T06:21:23.975Z,22.23
2023-04-02T06:23:56.453Z,24.70
2023-04-02T06:26:29.086Z,23.25
2023-04-02T06:29:04.997Z,22.13
2023-04-02T06:32:04.283Z,23.80
2023-04-02T06:34:32.290Z,21.13
2023-04-02T06:37:01.624Z,22.60
2023-04-02T06:39:28.344Z,25.33
2023-04-02T06:42:09.724Z,23.05
2023-04-02T06:44:37.599Z,23.75
2023-04-02T06:47:21.608Z,20.88
2023-04-02T06:49:52.835Z,20.52
2023-04-02T06:52:33.398Z,22.05
2023-04-02T06:55:07.503Z,21.98
2023-04-02T06:57:35.879Z,22.20
2023-04-02T07:00:02.930Z,24.00
2023-04-02T07:02:33.848Z,22.67
2023-04-02T07:05:07.305Z,21.48
2023-04-02T07:07:34.059Z,22.10
2023-04-02T07:10:00.704Z,22.90
2023-04-02T07:12:27.564Z,21.85
2023-04-02T07:14:54.393Z,21.73
2023-04-02T07:17:22.690Z,24.27
2023-04-02T07:19:49.860Z,23.50
2023-04-02T07:22:20.074Z,23.42
2023-04-02T07:24:47.144Z,22.50
2023-04-02T07:27:14.886Z,22.77
2023-04-02T07:29:44.912Z,23.60
2023-04-02T07:32:12.916Z,22.85
2023-04-02T07:34:41.412Z,22.27
2023-04-02T07:37:08.493Z,22.75
2023-04-02T07:39:37.784Z,23.70
2023-04-02T07:42:21.908Z,23.48
2023-04-02T07:44:48.533Z,23.55
2023-04-02T07:47:15.472Z,24.65
2023-04-02T07:49:45.155Z,23.05
2023-04-02T07:52:12.174Z,24.58
2023-04-02T07:54:39.972Z,22.83
2023-04-02T07:57:06.790Z,26.02
2023-04-02T07:59:33.739Z,25.00
2023-04-02T08:02:00.506Z,20.42
2023-04-02T08:04:27.218Z,23.17
2023-04-02T08:06:54.042Z,22.55
2023-04-02T08:09:20.943Z,22.55
2023-04-02T08:11:47.782Z,22.83
2023-04-02T08:14:14.777Z,21.02
2023-04-02T08:16:56.031Z,21.42
2023-04-02T08:19:23.335Z,19.08
2023-04-02T08:21:51.753Z,20.98
2023-04-02T08:24:19.474Z,19.25
2023-04-02T08:26:47.645Z,24.55
2023-04-02T08:29:14.698Z,22.27
2023-04-02T08:31:41.766Z,20.98
2023-04-02T08:34:09.260Z,20.17
2023-04-02T08:36:39.228Z,20.33
2023-04-02T08:39:11.123Z,20.45
2023-04-02T08:41:42.831Z,19.73
2023-04-02T08:44:32.517Z,18.38
2023-04-02T08:47:03.462Z,20.23
2023-04-02T08:49:37.678Z,21.27
2023-04-02T08:52:04.715Z,21.33
2023-04-02T08:54:34.853Z,21.40
2023-04-02T08:57:08.116Z,24.77
2023-04-02T08:59:38.299Z,23.08
2023-04-02T09:02:05.304Z,23.92
2023-04-02T09:04:33.256Z,22.35
2023-04-02T09:07:06.010Z,20.92
2023-04-02T09:09:34.795Z,20.02
2023-04-02T09:12:06.619Z,20.63
2023-04-02T09:14:45.937Z,20.40
2023-04-02T09:17:24.490Z,20.15
2023-04-02T09:20:18.888Z,17.48
2023-04-02T09:22:47.394Z,18.50
2023-04-02T09:25:18.329Z,21.02
2023-04-02T09:27:49.465Z,18.83
2023-04-02T09:30:35.398Z,19.70
2023-04-02T09:33:07.762Z,18.73
2023-04-02T09:35:37.268Z,20.10
2023-04-02T09:38:10.069Z,20.80
2023-04-02T09:40:59.683Z,22.30
2023-04-02T09:43:29.094Z,20.95
2023-04-02T09:46:16.533Z,19.38
2023-04-02T09:48:49.195Z,20.33
2023-04-02T09:51:23.061Z,22.73
2023-04-02T09:53:51.958Z,23.50
2023-04-02T09:56:26.568Z,23.85
2023-04-02T09:59:06.587Z,21.00
2023-04-02T10:01:35.316Z,19.88
2023-04-02T10:04:04.189Z,18.85
2023-04-02T10:06:35.897Z,21.10
2023-04-02T10:09:29.016Z,22.60
2023-04-02T10:11:56.267Z,23.08
2023-04-02T10:14:30.278Z,22.60
2023-04-02T10:16:58.837Z,26.60
2023-04-02T10:19:29.991Z,28.27
2023-04-02T10:21:57.863Z,28.70
2023-04-02T10:24:27.787Z,29.50
2023-04-02T10:27:03.698Z,27.73
2023-04-02T10:29:51.706Z,27.38
2023-04-02T10:32:32.555Z,26.45
2023-04-02T10:35:33.479Z,25.60
2023-04-02T10:38:18.751Z,24.85
2023-04-02T10:40:45.508Z,28.63
2023-04-02T10:43:39.532Z,28.90
2023-04-02T10:46:26.475Z,28.38
2023-04-02T10:49:14.063Z,27.35
2023-04-02T10:51:42.003Z,30.90
2023-04-02T10:54:39.505Z,27.98
2023-04-02T10:57:28.645Z,27.20
2023-04-02T11:00:01.568Z,27.08
2023-04-02T11:02:36.383Z,29.90
2023-04-02T11:05:11.861Z,27.98
2023-04-02T11:08:11.219Z,28.98
2023-04-02T11:10:43.487Z,32.22
2023-04-02T11:13:20.645Z,32.03
2023-04-02T11:15:47.472Z,28.30
2023-04-02T11:18:45.052Z,32.85
2023-04-02T11:21:30.150Z,29.88
2023-04-02T11:24:00.039Z,31.02
2023-04-02T11:26:41.515Z,30.35
2023-04-02T11:29:18.791Z,28.45
2023-04-02T11:31:46.309Z,27.50
2023-04-02T11:34:41.092Z,32.25
2023-04-02T11:37:11.075Z,24.52
2023-04-02T11:39:53.930Z,30.05
2023-04-02T11:42:37.344Z,30.50
2023-04-02T11:45:28.432Z,29.60
2023-04-02T11:48:06.211Z,27.58
2023-04-02T11:50:44.219Z,28.52
2023-04-02T11:53:11.067Z,28.30
2023-04-02T11:55:38.829Z,30.83
2023-04-02T11:58:17.767Z,26.38
2023-04-02T12:01:03.241Z,27.50
2023-04-02T12:04:08.052Z,27.52
2023-04-02T12:06:46.928Z,28.67
2023-04-02T12:09:25.536Z,25.73
2023-04-02T12:11:55.620Z,25.85
2023-04-02T12:14:44.356Z,25.15
2023-04-02T12:17:30.808Z,24.13
2023-04-02T12:20:02.756Z,24.52
2023-04-02T12:22:49.643Z,23.88
2023-04-02T12:25:35.324Z,23.95
2023-04-02T12:33:38.992Z,19.25
2023-04-02T12:36:19.272Z,21.95
2023-04-02T12:38:54.417Z,21.13
2023-04-02T12:41:30.976Z,19.25
2023-04-02T12:44:06.614Z,17.52
2023-04-02T12:46:35.143Z,16.83
2023-04-02T12:49:07.958Z,16.73
2023-04-02T12:51:38.124Z,13.32
2023-04-02T12:54:05.638Z,14.68
2023-04-02T12:56:32.452Z,13.43
2023-04-02T12:59:00.899Z,12.20
2023-04-02T13:01:29.450Z,11.13
2023-04-02T13:04:06.702Z,12.38
2023-04-02T13:06:37.064Z,12.40
2023-04-02T13:09:06.826Z,12.18
2023-04-02T13:11:39.619Z,16.33
2023-04-02T13:14:09.221Z,14.45
2023-04-02T13:16:38.398Z,13.60
2023-04-02T13:19:17.447Z,15.70
2023-04-02T13:21:45.500Z,15.55
2023-04-02T13:24:20.803Z,16.25
2023-04-02T13:29:23.890Z,14.15
2023-04-02T13:31:51.686Z,15.48
2023-04-02T13:34:18.563Z,14.15
2023-04-02T13:36:45.735Z,16.10
2023-04-02T13:39:12.423Z,18.67
2023-04-02T13:41:44.193Z,18.00
2023-04-02T13:44:27.819Z,20.17
2023-04-02T13:46:55.123Z,18.77
2023-04-02T13:49:22.894Z,20.65
2023-04-02T13:51:54.316Z,20.92
2023-04-02T13:54:31.548Z,21.85
2023-04-02T13:56:58.442Z,23.63
2023-04-02T13:59:26.244Z,22.10
2023-04-02T14:01:57.616Z,24.92
2023-04-02T14:04:28.119Z,25.45
2023-04-02T14:07:03.839Z,25.20
2023-04-02T14:09:55.122Z,27.75
2023-04-02T14:12:41.557Z,27.98
2023-04-02T14:15:20.027Z,30.42
2023-04-02T14:18:14.560Z,30.83
2023-04-02T14:20:51.618Z,39.88
2023-04-02T14:23:18.392Z,31.15
2023-04-02T14:26:04.896Z,34.35
2023-04-02T14:28:49.624Z,28.98
2023-04-02T14:31:16.501Z,29.63
2023-04-02T14:33:52.164Z,27.17
2023-04-02T14:36:24.812Z,25.50
2023-04-02T14:39:13.019Z,22.33
2023-04-02T14:41:57.847Z,27.25
2023-04-02T14:44:26.784Z,24.07
2023-04-02T14:47:02.856Z,25.25
2023-04-02T14:49:39.611Z,26.38
2023-04-02T14:52:12.085Z,29.70
2023-04-02T14:55:05.155Z,30.40
2023-04-02T14:57:33.388Z,34.75
2023-04-02T15:00:25.454Z,37.50
2023-04-02T15:03:09.227Z,38.85
2023-04-02T15:05:39.960Z,39.70
2023-04-02T15:08:13.281Z,37.53
2023-04-02T15:11:12.467Z,40.03
2023-04-02T15:14:04.788Z,46.17
2023-04-02T15:16:33.436Z,44.05
2023-04-02T15:19:01.611Z,44.42
2023-04-02T15:21:56.233Z,41.67
2023-04-02T15:24:50.815Z,41.65
2023-04-02T15:27:39.082Z,42.70
2023-04-02T15:30:09.126Z,45.78
2023-04-02T15:32:40.766Z,42.78
2023-04-02T15:35:16.663Z,40.78
2023-04-02T15:38:08.469Z,45.83
2023-04-02T15:40:41.439Z,39.92
2023-04-02T15:43:30.016Z,42.60
2023-04-02T15:46:29.057Z,42.30
2023-04-02T15:49:01.448Z,41.90
2023-04-02T15:51:45.707Z,39.58
2023-04-02T15:54:31.547Z,36.33
2023-04-02T15:57:30.447Z,27.27
2023-04-02T16:00:30.715Z,34.53
2023-04-02T16:03:03.816Z,32.97
2023-04-02T16:05:42.802Z,38.15
2023-04-02T16:08:31.392Z,35.13
2023-04-02T16:10:58.150Z,34.97
2023-04-02T16:13:33.842Z,34.95
2023-04-02T16:16:11.150Z,38.67
2023-04-02T16:18:53.682Z,39.25
2023-04-02T16:21:27.418Z,38.83
2023-04-02T16:23:54.580Z,43.72
2023-04-02T16:26:31.352Z,39.45
2023-04-02T16:29:03.029Z,38.13
2023-04-02T16:31:50.770Z,37.35
2023-04-02T16:34:26.372Z,34.03
2023-04-02T16:37:18.940Z,32.67
2023-04-02T16:40:11.386Z,31.67
2023-04-02T16:43:17.147Z,33.35
2023-04-02T16:46:40.762Z,26.95
2023-04-02T16:49:57.277Z,31.10
2023-04-02T16:53:01.474Z,34.22
2023-04-02T16:55:34.177Z,36.75
2023-04-02T16:58:25.140Z,40.70
2023-04-02T17:01:04.873Z,45.35
2023-04-02T17:03:51.032Z,40.70
2023-04-02T17:06:28.972Z,44.67
2023-04-02T17:09:14.142Z,43.13
2023-04-02T17:11:47.900Z,43.75
2023-04-02T17:14:23.515Z,36.80
2023-04-02T17:16:57.625Z,33.65
2023-04-02T17:19:29.663Z,33.25
2023-04-02T17:22:04.433Z,35.67
2023-04-02T17:24:33.710Z,35.30
2023-04-02T17:27:08.933Z,31.98
2023-04-02T17:32:04.395Z,30.05
2023-04-02T17:34:34.572Z,29.13
2023-04-02T17:37:20.548Z,27.98
2023-04-02T17:40:00.394Z,29.52
2023-04-02T17:42:39.215Z,26.02
2023-04-02T17:45:18.125Z,29.08
2023-04-02T17:47:50.824Z,26.85
2023-04-02T17:50:17.519Z,26.67
2023-04-02T17:53:06.321Z,27.95
2023-04-02T17:55:58.080Z,24.65
2023-04-02T17:58:36.744Z,20.35
2023-04-02T18:01:22.581Z,17.63
2023-04-02T18:04:29.383Z,18.55
2023-04-02T18:07:21.075Z,18.13
2023-04-02T18:10:13.081Z,19.90
2023-04-02T18:12:55.669Z,18.27
2023-04-02T18:15:47.569Z,18.27
2023-04-02T18:18:39.441Z,21.42
2023-04-02T18:21:16.944Z,18.35
2023-04-02T18:24:21.321Z,23.02
2023-04-02T18:26:50.669Z,20.55
2023-04-02T18:29:36.806Z,17.13
2023-04-02T18:32:23.733Z,19.63
2023-04-02T18:35:11.811Z,19.90
2023-04-02T18:37:53.048Z,19.33
2023-04-02T18:40:43.770Z,17.67
2023-04-02T18:43:31.820Z,15.45
2023-04-02T18:46:10.530Z,18.60
2023-04-02T18:48:44.576Z,17.48
2023-04-02T18:51:24.498Z,15.60
2023-04-02T18:53:55.895Z,15.80
2023-04-02T18:56:23.758Z,16.40
2023-04-02T18:58:59.330Z,14.85
2023-04-02T19:01:33.245Z,14.68
2023-04-02T19:04:06.776Z,16.35
2023-04-02T19:06:45.209Z,17.15
2023-04-02T19:09:17.444Z,15.50
2023-04-02T19:11:44.508Z,16.08
2023-04-02T19:14:13.857Z,13.65
2023-04-02T19:16:44.856Z,13.77
2023-04-02T19:19:19.941Z,13.65
2023-04-02T19:22:08.861Z,14.30
2023-04-02T19:24:55.146Z,13.23
2023-04-02T19:27:33.929Z,14.93
2023-04-02T19:30:13.201Z,15.63
2023-04-02T19:33:09.951Z,12.80
2023-04-02T19:36:04.356Z,13.85
2023-04-02T19:38:56.281Z,12.95
2023-04-02T19:41:29.037Z,12.48
2023-04-02T19:43:56.329Z,14.93
2023-04-02T19:46:24.697Z,13.95
2023-04-02T19:48:57.940Z,12.25
2023-04-02T19:51:24.686Z,12.98
2023-04-02T19:53:51.548Z,13.45
2023-04-02T19:56:18.585Z,13.00
2023-04-02T19:58:45.433Z,13.95
2023-04-02T20:01:12.211Z,12.95
2023-04-02T20:03:39.207Z,13.95
2023-04-02T20:06:13.768Z,14.15
2023-04-02T20:08:40.535Z,15.82
2023-04-02T20:11:08.154Z,14.98
2023-04-02T20:13:35.221Z,15.20
2023-04-02T20:16:03.618Z,16.83
2023-04-02T20:18:31.607Z,13.60
2023-04-02T20:20:58.664Z,16.08
2023-04-02T20:23:25.498Z,15.50
2023-04-02T20:25:56.264Z,15.05
2023-04-02T20:28:24.486Z,15.35
2023-04-02T20:30:52.000Z,16.77
2023-04-02T20:33:25.129Z,15.55
2023-04-02T20:35:52.443Z,17.52
2023-04-02T20:38:19.697Z,14.98
2023-04-02T20:40:52.928Z,14.60
2023-04-02T20:43:19.681Z,15.07
2023-04-02T20:46:04.707Z,14.52
2023-04-02T20:48:32.771Z,15.90
2023-04-02T20:51:01.912Z,13.52
2023-04-02T20:53:35.576Z,15.02
2023-04-02T20:56:13.527Z,15.07
2023-04-02T20:58:47.093Z,16.90
2023-04-02T21:01:17.543Z,15.90
2023-04-02T21:03:44.543Z,15.52
2023-04-02T21:06:19.401Z,16.00
2023-04-02T21:08:46.345Z,17.88
2023-04-02T21:11:13.293Z,18.40
2023-04-02T21:13:42.582Z,17.27
2023-04-02T21:16:23.738Z,19.05
2023-04-02T21:18:52.995Z,18.67
2023-04-02T21:21:21.230Z,19.58
2023-04-02T21:23:56.258Z,18.10
2023-04-02T21:26:23.273Z,17.80
2023-04-02T21:28:53.272Z,17.25
2023-04-02T21:31:22.756Z,16.90
2023-04-02T21:33:51.727Z,18.38
2023-04-02T21:36:27.220Z,16.88
2023-04-02T21:38:58.784Z,17.33
2023-04-02T21:41:28.076Z,13.25
2023-04-02T21:43:56.477Z,14.13
2023-04-02T21:46:25.819Z,13.20
2023-04-02T21:49:03.255Z,14.20
2023-04-02T21:51:32.221Z,14.35
2023-04-02T21:53:59.762Z,13.35
2023-04-02T21:56:34.766Z,14.65
2023-04-02T21:59:02.464Z,15.13
2023-04-02T22:01:32.004Z,13.65
2023-04-02T22:04:01.565Z,14.23
2023-04-02T22:06:30.451Z,13.63
2023-04-02T22:09:00.473Z,16.77
2023-04-02T22:11:30.032Z,17.38
2023-04-02T22:13:58.154Z,20.33
2023-04-02T22:16:28.381Z,19.75
2023-04-02T22:18:57.525Z,19.63
2023-04-02T22:21:25.779Z,18.98
2023-04-02T22:23:53.082Z,20.25
2023-04-02T22:26:21.813Z,15.55
2023-04-02T22:28:49.210Z,17.63
2023-04-02T22:31:18.339Z,14.05
2023-04-02T22:33:46.241Z,15.30
2023-04-02T22:36:14.226Z,14.02
2023-04-02T22:38:41.347Z,13.60
2023-04-02T22:41:13.287Z,12.93
2023-04-02T22:43:41.398Z,12.50
2023-04-02T22:46:09.270Z,13.27
2023-04-02T22:48:39.269Z,12.48
2023-04-02T22:51:07.648Z,12.57
2023-04-02T22:53:53.038Z,11.75
2023-04-02T22:56:22.208Z,11.75
2023-04-02T22:58:49.590Z,12.27
2023-04-02T23:01:22.152Z,13.30
2023-04-02T23:03:49.310Z,13.98
2023-04-02T23:06:18.319Z,15.60
2023-04-02T23:08:46.226Z,13.88
2023-04-02T23:11:18.625Z,15.02
2023-04-02T23:13:47.967Z,17.10
2023-04-02T23:16:24.862Z,19.55
2023-04-02T23:18:51.809Z,19.67
2023-04-02T23:21:19.411Z,19.35
2023-04-02T23:23:46.999Z,17.98
2023-04-02T23:26:27.308Z,19.58
2023-04-02T23:28:54.031Z,19.45
2023-04-02T23:31:22.597Z,20.45
2023-04-02T23:33:53.803Z,18.15
2023-04-02T23:36:26.300Z,20.67
2023-04-02T23:38:55.717Z,21.40
2023-04-02T23:41:24.338Z,18.90
2023-04-02T23:43:51.153Z,21.52
2023-04-02T23:46:17.921Z,22.40
2023-04-02T23:48:49.915Z,19.58
2023-04-02T23:51:17.119Z,23.63
2023-04-02T23:53:43.903Z,19.83
2023-04-02T23:56:11.369Z,20.52
2023-04-02T23:58:38.114Z,19.25
